Observations for LORIENT LANN BIHOUE, France (LFRH)

LFRH 182100Z AUTO 08011KT CAVOK 05/01 Q1016 NOSIG   
LFRH 182030Z AUTO 08014KT CAVOK 05/01 Q1016 NOSIG   
LFRH 182000Z AUTO 07016KT CAVOK 06/02 Q1016 BECMG 06012G22KT
LFRH 181930Z AUTO 07015KT CAVOK 06/02 Q1016 BECMG 06012G22KT
LFRH 181900Z AUTO 07014KT CAVOK 06/02 Q1016 NOSIG   
LFRH 181830Z AUTO 07014KT CAVOK 06/02 Q1016 NOSIG   
LFRH 181800Z AUTO 07014KT CAVOK 07/02 Q1016 NOSIG   
LFRH 181730Z AUTO 07015KT CAVOK 07/02 Q1016 BECMG 06012G22KT
LFRH 181700Z AUTO 05016KT CAVOK 08/03 Q1015 BECMG 06012G22KT
LFRH 181630Z AUTO 06016KT CAVOK 08/03 Q1015 BECMG 06012G22KT
LFRH 181600Z AUTO 06015KT CAVOK 08/03 Q1015 BECMG 06012G22KT
LFRH 181530Z AUTO 06014KT CAVOK 09/03 Q1015 NOSIG   
LFRH 181500Z AUTO 06016KT CAVOK 09/04 Q1016 BECMG 06012G22KT
LFRH 181430Z AUTO 06015KT CAVOK 10/04 Q1015 BECMG 06012G22KT
LFRH 181400Z AUTO 06016KT CAVOK 10/04 Q1016 BECMG 06012G22KT
LFRH 181330Z AUTO 06014KT CAVOK 11/05 Q1016 NOSIG   
LFRH 181300Z AUTO 06014KT CAVOK 11/05 Q1016 NOSIG   
LFRH 181230Z AUTO 06015KT CAVOK 10/05 Q1017 BECMG 06012G22KT
LFRH 181200Z AUTO 07015KT CAVOK 10/05 Q1017 BECMG 06012G22KT
LFRH 181130Z AUTO 07017KT CAVOK 09/04 Q1017 BECMG 06012G22KT
LFRH 181100Z AUTO 06013KT CAVOK 08/05 Q1017 NOSIG   
LFRH 181030Z AUTO 07015KT CAVOK 07/04 Q1018 BECMG 07012G22KT
LFRH 181000Z AUTO 06014KT CAVOK 07/04 Q1018 NOSIG   
LFRH 180930Z AUTO 07013KT CAVOK 06/04 Q1018 NOSIG   
LFRH 180900Z AUTO 07013KT CAVOK 05/03 Q1018 NOSIG   
LFRH 180830Z AUTO 08013KT 8000 NSC 05/03 Q1018 NOSIG
LFRH 180800Z AUTO 08013KT 8000 NSC 04/03 Q1017 TEMPO 4000 BR
LFRH 180730Z AUTO 07012KT 7000 NSC 04/03 Q1017 TEMPO 4000 BR
LFRH 180700Z AUTO 07012KT 7000 NSC 04/03 Q1017 TEMPO 4000 BR
LFRH 180630Z AUTO 08010KT 8000 NSC 04/03 Q1017 TEMPO 3000 BR
LFRH 180600Z AUTO 07012KT 8000 SCT026 04/03 Q1017 TEMPO 3000 BR OVC008  
LFRH 180530Z AUTO 07012KT 8000 OVC025 05/03 Q1017 TEMPO 3000 BR OVC008  
LFRH 180500Z AUTO 07014KT 8000 BKN014 OVC020 05/03 Q1016 TEMPO 2000 BR BKN004 OVC008
LFRH 180430Z AUTO 08015KT 8000 SCT011 OVC016 04/03 Q1016 TEMPO 2000 BR BKN004 OVC008 BECMG 07012G22KT   
LFRH 180400Z AUTO 08014KT 7000 BKN013 04/02 Q1016 BECMG OVC008  
LFRH 180330Z AUTO 08014KT 7000 NSC 03/02 Q1016 BECMG OVC008 
LFRH 180300Z AUTO 07011KT 7000 NSC 03/02 Q1017 BECMG OVC008 
LFRH 180230Z AUTO 07010KT 7000 NSC 03/02 Q1017 BECMG OVC008 
LFRH 180200Z AUTO 06009KT 7000 NSC 03/02 Q1017 BECMG OVC008 
LFRH 180130Z AUTO 06012KT 7000 NSC 03/02 Q1017 BECMG OVC008 
LFRH 180100Z AUTO 07010KT 7000 NSC 04/02 Q1017 BECMG OVC008 
LFRH 180030Z AUTO 08011KT 8000 FEW016 04/02 Q1017 BECMG OVC008  
LFRH 180000Z AUTO 10013KT 8000 OVC016 05/02 Q1018 NOSIG 
LFRH 172330Z AUTO 09015KT 8000 OVC016 05/02 Q1018 BECMG 07012G22KT  
LFRH 172300Z AUTO 09012KT 8000 OVC016 04/02 Q1018 TEMPO BKN012  
LFRH 172230Z AUTO 09015KT 8000 OVC016 04/02 Q1018 TEMPO BKN012 BECMG 07010G20KT 
LFRH 172200Z AUTO 08015KT 7000 OVC014 05/02 Q1018 BECMG 07010G20KT  
LFRH 172130Z AUTO 09016KT 7000 OVC014 05/03 Q1018 BECMG 07010G20KT  
LFRH 172100Z AUTO 09014KT 7000 OVC013 05/03 Q1018 NOSIG 
LFRH 172030Z AUTO 09014KT 7000 OVC012 05/03 Q1018 NOSIG